Time;durP1;ratioP1;P1;durP2;ratioP2;P2;SDS_P1;SDS_P2;PMS_P1;PMS_P2;Temp;Humidity;BMP_temperature;BMP_pressure;BME280_temperature;BME280_humidity;BME280_pressure;Samples;Min_cycle;Max_cycle;Signal;HPM_P1;HPM_P2
2022/12/15 00:40:18;;;;;;;465.07;316.83;;;;;;;-7.96;68.70;100028.31;4177548;28;20812;-58
2022/12/15 00:42:21;;;;;;;457.20;298.33;;;;;;;-7.90;68.81;100032.38;4178957;28;20281;-58
2022/12/15 00:44:23;;;;;;;462.70;318.33;;;;;;;-7.91;68.63;100035.94;4178982;28;20286;-55
2022/12/15 00:48:47;;;;;;;450.37;283.97;;;;;;;-7.94;68.69;100028.22;4157663;28;20211;-56
2022/12/15 00:50:54;;;;;;;477.07;348.13;;;;;;;-7.98;68.50;100024.88;4173411;28;20313;-59
2022/12/15 01:20:56;;;;;;;455.80;289.83;;;;;;;-8.18;68.10;100054.69;4155151;28;20313;-57
2022/12/15 01:22:58;;;;;;;479.03;326.53;;;;;;;-8.17;68.51;100051.16;4164999;28;20278;-58
2022/12/15 01:25:01;;;;;;;471.80;325.80;;;;;;;-8.19;68.40;100050.41;4177693;28;20297;-58
2022/12/15 01:27:03;;;;;;;448.30;266.07;;;;;;;-8.22;68.61;100043.53;4176282;28;20745;-55
2022/12/15 01:29:05;;;;;;;452.70;280.47;;;;;;;-8.21;69.13;100044.34;4181979;28;20352;-56
2022/12/15 01:31:11;;;;;;;443.97;270.30;;;;;;;-8.11;69.84;100039.53;4165154;28;20226;-54
2022/12/15 01:33:14;;;;;;;434.07;237.00;;;;;;;-8.10;69.43;100041.22;4166255;28;20290;-53
2022/12/15 01:35:18;;;;;;;435.90;245.47;;;;;;;-8.07;69.23;100035.81;4164726;28;20322;-54
2022/12/15 01:37:20;;;;;;;438.83;241.43;;;;;;;-8.09;69.11;100033.28;4165907;28;20295;-59
2022/12/15 01:39:23;;;;;;;442.17;247.43;;;;;;;-8.09;68.83;100035.06;4165901;28;20667;-53
2022/12/15 01:41:24;;;;;;;446.03;261.47;;;;;;;-8.12;68.79;100029.97;4165055;28;20318;-54
2022/12/15 01:43:29;;;;;;;437.33;241.23;;;;;;;-8.10;68.93;100025.50;4166335;28;20631;-57
2022/12/15 01:45:49;;;;;;;451.57;285.40;;;;;;;-8.11;68.66;100029.06;4164714;28;20302;-57
2022/12/15 01:47:53;;;;;;;441.20;248.80;;;;;;;-8.14;68.47;100035.28;4166018;28;20670;-55
2022/12/15 01:49:55;;;;;;;439.93;240.00;;;;;;;-8.19;68.27;100035.50;4165759;28;20302;-56
2022/12/15 01:52:00;;;;;;;442.07;250.10;;;;;;;-8.26;68.04;100035.88;4164996;28;20289;-57
2022/12/15 01:54:07;;;;;;;451.97;269.67;;;;;;;-8.20;68.66;100041.66;4164506;28;20287;-57
2022/12/15 01:56:11;;;;;;;446.90;269.33;;;;;;;-8.18;68.67;100042.47;4153721;28;20324;-57
2022/12/15 01:58:15;;;;;;;454.63;289.83;;;;;;;-8.22;68.31;100040.06;4156107;28;20628;-57
2022/12/15 02:00:18;;;;;;;448.87;274.00;;;;;;;-8.29;68.38;100039.53;4165005;28;20315;-55
2022/12/15 02:02:23;;;;;;;450.07;286.50;;;;;;;-8.36;68.21;100031.09;4165795;28;20230;-56
2022/12/15 02:04:26;;;;;;;442.30;260.40;;;;;;;-8.32;68.43;100031.81;4165615;28;20283;-53
2022/12/15 02:06:29;;;;;;;460.80;302.57;;;;;;;-8.36;68.40;100038.09;4164367;28;20658;-53
2022/12/15 02:08:32;;;;;;;470.23;332.20;;;;;;;-8.44;68.38;100030.66;4165247;28;20292;-56
2022/12/15 02:11:01;;;;;;;471.63;337.70;;;;;;;-8.46;67.97;100042.09;4164745;28;20673;-56
2022/12/15 02:13:09;;;;;;;451.73;276.27;;;;;;;-8.47;68.61;100050.91;4165844;28;20196;-55
2022/12/15 02:15:20;;;;;;;457.30;297.07;;;;;;;-8.49;68.63;100061.44;4164726;28;20278;-56
2022/12/15 02:17:29;;;;;;;447.17;264.57;;;;;;;-8.44;69.10;100048.13;4166520;28;20287;-53
2022/12/15 02:19:56;;;;;;;494.47;373.40;;;;;;;-8.42;69.09;100057.56;4165862;28;20315;-55
2022/12/15 02:22:11;;;;;;;489.67;380.43;;;;;;;-8.41;69.21;100063.69;4164270;28;20626;-56
2022/12/15 02:24:35;;;;;;;469.57;330.83;;;;;;;-8.38;69.41;100061.75;4166216;28;20287;-54
2022/12/15 02:27:14;;;;;;;464.03;322.50;;;;;;;-8.37;69.39;100049.50;4161168;28;20880;-55
2022/12/15 02:29:30;;;;;;;458.27;356.03;;;;;;;-8.44;69.12;100054.22;4155910;28;20273;-55
2022/12/15 02:31:49;;;;;;;395.20;356.23;;;;;;;-8.48;69.02;100059.66;4164864;28;20648;-56
2022/12/15 02:34:06;;;;;;;416.57;376.03;;;;;;;-8.48;69.13;100057.06;4154298;28;20242;-57
2022/12/15 02:36:15;;;;;;;431.87;355.50;;;;;;;-8.48;69.28;100070.16;4171560;28;20322;-56
2022/12/15 02:38:28;;;;;;;470.03;343.77;;;;;;;-8.56;69.19;100062.66;4164841;28;20237;-54
2022/12/15 02:40:30;;;;;;;437.83;359.20;;;;;;;-8.55;69.05;100074.84;4153017;28;20658;-56
2022/12/15 02:42:33;;;;;;;466.87;350.47;;;;;;;-8.57;69.10;100074.06;4165543;28;20287;-56
2022/12/15 02:44:38;;;;;;;466.03;356.40;;;;;;;-8.61;69.29;100078.56;4165196;28;20283;-56
2022/12/15 02:46:54;;;;;;;460.17;348.37;;;;;;;-8.61;69.24;100081.19;4163900;28;20323;-56
2022/12/15 02:49:02;;;;;;;435.43;358.50;;;;;;;-8.60;69.30;100082.91;4164931;28;20314;-57
2022/12/15 02:51:15;;;;;;;434.47;357.13;;;;;;;-8.60;69.17;100095.16;4164152;28;20301;-56
2022/12/15 02:53:30;;;;;;;476.73;361.30;;;;;;;-8.62;69.32;100096.97;4164753;28;20724;-53
2022/12/15 02:55:39;;;;;;;431.40;394.07;;;;;;;-8.61;69.54;100106.53;4160843;28;20224;-56
2022/12/15 02:57:46;;;;;;;469.77;396.93;;;;;;;-8.59;69.35;100104.69;4173089;28;20230;-57
2022/12/15 02:59:54;;;;;;;474.17;340.63;;;;;;;-8.62;69.42;100110.94;4167936;28;20306;-57
2022/12/15 03:02:01;;;;;;;477.03;348.97;;;;;;;-8.64;69.82;100106.69;4172709;28;20788;-52
2022/12/15 03:04:05;;;;;;;479.33;350.13;;;;;;;-8.63;69.83;100114.47;4165062;28;20286;-56
2022/12/15 03:06:09;;;;;;;480.80;360.80;;;;;;;-8.67;70.00;100115.50;4162935;28;20322;-56
2022/12/15 03:08:11;;;;;;;477.17;380.50;;;;;;;-8.66;70.23;100117.22;4164462;28;20630;-56
2022/12/15 03:10:14;;;;;;;480.57;367.13;;;;;;;-8.67;70.18;100125.16;4163778;28;20307;-59
2022/12/15 03:12:16;;;;;;;477.83;365.87;;;;;;;-8.68;70.25;100118.19;4164747;28;20278;-54
2022/12/15 03:14:18;;;;;;;380.23;336.80;;;;;;;-8.70;70.42;100120.88;4164558;28;20295;-56
2022/12/15 03:16:21;;;;;;;374.27;336.70;;;;;;;-8.72;70.56;100125.34;4163426;28;20285;-55
2022/12/15 03:18:25;;;;;;;403.33;332.20;;;;;;;-8.74;70.57;100120.19;4163039;28;20812;-58
2022/12/15 03:20:28;;;;;;;392.33;352.00;;;;;;;-8.79;70.59;100123.91;4176640;28;20322;-58
2022/12/15 03:22:30;;;;;;;502.65;444.40;;;;;;;-8.69;70.42;100130.44;4161122;28;24560;-56
2022/12/15 03:24:32;;;;;;;466.30;315.73;;;;;;;-8.56;70.60;100135.97;4164325;28;20283;-55
2022/12/15 03:26:35;;;;;;;474.13;332.67;;;;;;;-8.53;70.52;100138.44;4167148;28;20335;-57
2022/12/15 03:28:37;;;;;;;481.97;358.30;;;;;;;-8.52;70.66;100137.53;4164382;28;20286;-56
2022/12/15 03:30:39;;;;;;;471.33;321.40;;;;;;;-8.57;70.80;100143.00;4171772;28;20307;-56
2022/12/15 03:32:42;;;;;;;470.23;310.53;;;;;;;-8.68;70.62;100141.75;4171051;28;20310;-57
2022/12/15 03:34:45;;;;;;;476.40;335.03;;;;;;;-8.73;70.79;100129.75;4180097;28;20262;-57
2022/12/15 03:36:47;;;;;;;477.90;347.47;;;;;;;-8.77;70.87;100133.41;4177952;28;20251;-56
2022/12/15 03:38:50;;;;;;;466.83;310.80;;;;;;;-8.83;71.12;100122.38;4178700;28;20290;-56
2022/12/15 03:40:52;;;;;;;464.77;304.17;;;;;;;-8.83;71.13;100128.44;4162295;28;20306;-57
2022/12/15 03:42:54;;;;;;;453.60;258.10;;;;;;;-8.80;71.19;100122.22;4163880;28;20283;-56
2022/12/15 03:44:56;;;;;;;468.53;304.70;;;;;;;-8.80;71.23;100127.47;4163448;28;20223;-57
2022/12/15 03:46:59;;;;;;;459.90;291.30;;;;;;;-8.81;71.10;100131.00;4163106;28;20311;-58
2022/12/15 03:49:01;;;;;;;462.13;300.53;;;;;;;-8.85;71.01;100124.19;4175430;28;20753;-58
2022/12/15 03:51:06;;;;;;;460.87;302.87;;;;;;;-8.84;71.02;100131.13;4159620;28;20651;-57
2022/12/15 03:53:08;;;;;;;465.97;302.93;;;;;;;-8.89;70.82;100129.59;4159091;28;20286;-57
2022/12/15 03:55:11;;;;;;;454.77;280.43;;;;;;;-8.91;70.94;100136.63;4176031;28;20303;-57
2022/12/15 03:57:14;;;;;;;447.83;261.43;;;;;;;-8.90;70.96;100134.88;4168658;28;20286;-58
2022/12/15 03:59:16;;;;;;;445.37;252.63;;;;;;;-8.90;70.79;100134.88;4163623;28;20307;-58
2022/12/15 04:01:26;;;;;;;445.80;264.17;;;;;;;-8.91;70.62;100135.78;4162595;28;20322;-56
2022/12/15 04:03:28;;;;;;;447.97;266.80;;;;;;;-8.94;70.44;100146.41;4163612;28;20290;-54
2022/12/15 04:05:32;;;;;;;472.33;329.07;;;;;;;-8.95;70.50;100158.66;4162978;28;20310;-57
2022/12/15 04:07:36;;;;;;;476.43;344.77;;;;;;;-8.95;70.41;100153.41;4163526;28;20290;-59
2022/12/15 04:09:38;;;;;;;444.93;263.07;;;;;;;-8.94;70.30;100149.03;4164726;28;20302;-56
2022/12/15 04:11:40;;;;;;;435.40;241.97;;;;;;;-8.97;70.29;100147.38;4163434;28;20322;-59
2022/12/15 04:13:42;;;;;;;460.30;292.33;;;;;;;-9.02;69.98;100164.22;4163459;28;20290;-56
2022/12/15 04:15:45;;;;;;;456.07;295.83;;;;;;;-9.07;70.21;100165.25;4162610;28;20330;-59
2022/12/15 04:17:47;;;;;;;447.93;262.90;;;;;;;-9.10;70.12;100161.94;4164112;28;20682;-57
2022/12/15 04:22:09;;;;;;;445.83;256.87;;;;;;;-9.19;70.08;100157.09;4154139;28;20816;-60
2022/12/15 05:31:54;;;;;;;442.00;252.33;;;;;;;-8.76;74.80;100237.22;4160816;28;20330;-59
2022/12/15 05:33:58;;;;;;;455.30;280.10;;;;;;;-8.76;75.21;100237.22;4162199;28;20275;-58
2022/12/15 05:36:01;;;;;;;456.60;283.70;;;;;;;-8.70;75.52;100236.06;4163179;28;20748;-59
2022/12/15 05:38:04;;;;;;;452.53;270.80;;;;;;;-8.61;75.71;100240.91;4162154;28;20283;-59
2022/12/15 05:40:08;;;;;;;460.57;303.30;;;;;;;-8.61;75.81;100240.91;4177814;28;20306;-57
2022/12/15 05:42:10;;;;;;;459.10;287.03;;;;;;;-8.64;75.79;100250.69;4178450;28;20306;-60
2022/12/15 05:44:13;;;;;;;457.43;298.50;;;;;;;-8.71;75.94;100250.94;4164306;28;20287;-57
2022/12/15 05:46:16;;;;;;;460.47;296.30;;;;;;;-8.72;76.27;100279.81;4157319;28;20224;-58
2022/12/15 05:48:19;;;;;;;460.53;302.10;;;;;;;-8.72;76.37;100282.44;4168766;28;20282;-59
2022/12/15 05:50:21;;;;;;;459.67;301.70;;;;;;;-8.73;76.58;100285.94;4171427;28;20322;-59
2022/12/15 05:52:24;;;;;;;451.30;272.87;;;;;;;-8.74;76.72;100289.50;4159387;28;20347;-59
2022/12/15 05:54:26;;;;;;;453.00;288.73;;;;;;;-8.76;76.79;100289.56;4164001;28;20287;-61
2022/12/15 05:56:29;;;;;;;448.23;269.80;;;;;;;-8.76;76.82;100279.09;4162469;28;20315;-59
2022/12/15 05:58:31;;;;;;;442.70;259.03;;;;;;;-8.76;77.03;100284.34;4162218;28;20754;-59
2022/12/15 06:00:33;;;;;;;446.93;268.23;;;;;;;-8.75;76.91;100287.78;4160620;28;20315;-58
2022/12/15 06:02:37;;;;;;;450.60;270.63;;;;;;;-8.75;76.87;100293.88;4162419;28;20279;-59
2022/12/15 06:04:40;;;;;;;443.10;245.97;;;;;;;-8.75;76.71;100300.88;4164565;28;20294;-60
2022/12/15 06:06:42;;;;;;;440.87;263.83;;;;;;;-8.76;76.83;100302.66;4162533;28;20654;-59
2022/12/15 06:08:45;;;;;;;449.80;272.30;;;;;;;-8.81;76.35;100309.81;4169073;28;20286;-59
2022/12/15 06:10:52;;;;;;;457.63;304.37;;;;;;;-8.81;76.42;100316.84;4170077;28;20330;-59
2022/12/15 06:12:54;;;;;;;448.43;274.87;;;;;;;-8.87;76.18;100302.22;4164395;28;20298;-59
2022/12/15 06:14:57;;;;;;;446.03;261.00;;;;;;;-8.93;75.82;100295.50;4165422;28;20658;-59
2022/12/15 06:17:00;;;;;;;437.67;246.57;;;;;;;-8.99;76.06;100294.91;4175577;28;20716;-57
2022/12/15 06:19:03;;;;;;;438.97;246.70;;;;;;;-8.88;76.28;100313.63;4169521;28;20645;-59
2022/12/15 06:21:07;;;;;;;433.53;235.23;;;;;;;-8.88;76.19;100321.50;4178805;28;20325;-59
2022/12/15 06:23:10;;;;;;;434.63;245.60;;;;;;;-8.91;75.85;100324.22;4144536;28;20644;-57
2022/12/15 06:25:13;;;;;;;435.83;242.53;;;;;;;-8.89;75.73;100322.38;4169919;28;20282;-59
2022/12/15 06:27:15;;;;;;;427.43;220.50;;;;;;;-8.94;75.53;100313.88;4172520;28;20633;-58
2022/12/15 06:29:18;;;;;;;432.97;237.83;;;;;;;-9.03;75.33;100312.50;4170417;28;20306;-58
2022/12/15 06:31:21;;;;;;;436.97;246.80;;;;;;;-9.07;75.42;100332.69;4167808;28;21093;-59
2022/12/15 06:33:23;;;;;;;431.23;234.07;;;;;;;-8.99;75.65;100328.94;4177748;28;20756;-59
2022/12/15 06:35:27;;;;;;;431.40;242.90;;;;;;;-8.97;75.38;100327.94;4172812;28;20313;-59
2022/12/15 06:37:29;;;;;;;431.03;235.77;;;;;;;-8.97;75.12;100322.69;4178951;28;20286;-58
2022/12/15 06:39:31;;;;;;;432.03;241.80;;;;;;;-8.99;75.10;100327.16;4172424;28;20841;-58
2022/12/15 06:41:34;;;;;;;426.80;225.77;;;;;;;-9.05;74.81;100327.41;4171794;28;20318;-59
2022/12/15 06:43:36;;;;;;;440.67;227.67;;;;;;;-9.06;74.60;100334.41;4158134;28;21391;-58
2022/12/15 06:45:38;;;;;;;431.50;255.23;;;;;;;-9.08;74.45;100335.38;4154567;28;20318;-59
2022/12/15 06:47:41;;;;;;;424.57;217.87;;;;;;;-9.14;74.30;100338.25;4154436;28;20648;-58
2022/12/15 06:49:43;;;;;;;424.90;225.33;;;;;;;-9.14;74.40;100338.25;4153403;28;20752;-59
2022/12/15 06:51:48;;;;;;;415.43;191.77;;;;;;;-9.17;74.13;100333.97;4152977;28;20756;-58
2022/12/15 06:53:52;;;;;;;504.43;367.33;;;;;;;-9.16;73.94;100343.53;4145378;28;20657;-59
2022/12/15 06:55:59;;;;;;;435.50;228.47;;;;;;;-9.18;73.86;100336.66;4143213;28;20354;-57
2022/12/15 06:58:02;;;;;;;433.10;227.77;;;;;;;-9.22;73.48;100324.63;4140025;28;20633;-57
2022/12/15 07:00:05;;;;;;;430.80;209.80;;;;;;;-9.23;73.75;100336.88;4140387;28;20797;-56
2022/12/15 07:02:15;;;;;;;455.43;274.67;;;;;;;-9.24;73.45;100341.22;4141224;28;20626;-57
2022/12/15 07:04:17;;;;;;;463.07;284.17;;;;;;;-9.28;73.23;100341.41;4140586;28;20261;-60
2022/12/15 07:06:20;;;;;;;465.53;292.33;;;;;;;-9.29;73.42;100342.34;4129510;28;20758;-58
2022/12/15 07:08:23;;;;;;;451.53;261.67;;;;;;;-9.27;73.11;100354.41;4140699;28;20206;-58
2022/12/15 07:10:26;;;;;;;450.17;262.73;;;;;;;-9.27;73.28;100354.41;4144611;28;20235;-57
2022/12/15 07:12:28;;;;;;;461.23;286.33;;;;;;;-9.22;73.21;100369.09;4140698;28;20218;-58
2022/12/15 07:14:30;;;;;;;448.03;246.10;;;;;;;-9.22;73.18;100371.72;4138032;28;20620;-57
2022/12/15 07:16:33;;;;;;;450.27;255.50;;;;;;;-9.24;72.90;100369.16;4138435;28;20881;-55
2022/12/15 07:18:35;;;;;;;448.87;253.13;;;;;;;-9.26;72.77;100377.06;4130987;28;20208;-58
2022/12/15 07:20:37;;;;;;;446.40;246.00;;;;;;;-9.27;72.99;100374.50;4138753;28;20243;-55
2022/12/15 07:22:40;;;;;;;441.93;232.90;;;;;;;-9.28;72.65;100372.78;4138994;28;20315;-59
2022/12/15 07:24:43;;;;;;;444.13;247.07;;;;;;;-9.25;72.64;100386.63;4139457;28;20188;-55
2022/12/15 07:26:46;;;;;;;446.80;268.07;;;;;;;-9.21;72.60;100387.34;4142025;28;21459;-56
2022/12/15 07:28:48;;;;;;;440.13;230.80;;;;;;;-9.21;72.64;100394.34;4136294;28;20298;-57
2022/12/15 07:30:50;;;;;;;430.87;213.07;;;;;;;-9.16;72.54;100400.25;4130294;28;20234;-57
2022/12/15 07:32:52;;;;;;;429.13;225.90;;;;;;;-9.21;72.17;100394.34;4160761;28;20306;-55
2022/12/15 07:34:55;;;;;;;424.97;204.07;;;;;;;-9.25;72.11;100399.69;4162378;28;20733;-56
2022/12/15 07:36:57;;;;;;;424.43;209.27;;;;;;;-9.25;71.99;100407.56;4162337;28;21294;-55
2022/12/15 07:39:00;;;;;;;428.33;221.67;;;;;;;-9.28;71.80;100404.19;4160130;28;20718;-56
2022/12/15 07:41:05;;;;;;;432.27;237.23;;;;;;;-9.27;71.81;100411.97;4167549;28;20737;-55
2022/12/15 07:43:08;;;;;;;433.57;230.03;;;;;;;-9.27;71.86;100411.97;4161892;28;20275;-52
2022/12/15 07:45:11;;;;;;;428.57;219.80;;;;;;;-9.29;71.75;100419.03;4164425;28;20283;-55
2022/12/15 07:47:13;;;;;;;425.50;211.03;;;;;;;-9.31;71.42;100412.16;4160967;28;20724;-56
2022/12/15 07:49:16;;;;;;;425.30;210.60;;;;;;;-9.35;71.73;100411.41;4163168;28;20238;-55
2022/12/15 07:51:19;;;;;;;429.30;221.83;;;;;;;-9.39;71.54;100412.44;4162133;28;20729;-57
2022/12/15 07:53:21;;;;;;;433.23;239.57;;;;;;;-9.34;71.45;100420.09;4170864;28;20314;-57
2022/12/15 07:55:24;;;;;;;436.73;244.17;;;;;;;-9.34;71.29;100420.97;4164682;28;20306;-53
2022/12/15 07:57:28;;;;;;;434.93;245.90;;;;;;;-9.38;71.10;100423.75;4165807;28;20300;-55
2022/12/15 07:59:30;;;;;;;434.90;237.63;;;;;;;-9.43;71.09;100427.41;4172752;28;20306;-57
2022/12/15 08:01:33;;;;;;;436.70;238.63;;;;;;;-9.44;71.19;100437.91;4162087;28;20318;-58
2022/12/15 08:03:36;;;;;;;443.50;269.33;;;;;;;-9.48;71.47;100444.16;4162563;28;20290;-55
2022/12/15 08:05:38;;;;;;;435.67;241.63;;;;;;;-9.45;71.79;100434.44;4163919;28;20520;-54
2022/12/15 08:07:41;;;;;;;441.20;259.23;;;;;;;-9.38;71.74;100450.75;4162691;28;21005;-56
2022/12/15 08:09:43;;;;;;;437.37;241.83;;;;;;;-9.35;71.52;100447.19;4162795;28;20739;-55
2022/12/15 08:11:46;;;;;;;438.93;249.20;;;;;;;-9.33;71.59;100445.34;4168744;28;20322;-56
2022/12/15 08:13:49;;;;;;;440.53;253.57;;;;;;;-9.37;71.33;100447.25;4162615;28;20315;-57
2022/12/15 08:15:53;;;;;;;443.10;269.07;;;;;;;-9.39;71.03;100448.19;4163838;28;20732;-53
2022/12/15 08:17:55;;;;;;;436.33;244.63;;;;;;;-9.33;71.26;100464.50;4171330;28;20615;-55
2022/12/15 08:19:58;;;;;;;438.53;253.40;;;;;;;-9.31;71.13;100452.25;4176277;28;20301;-56
2022/12/15 08:22:00;;;;;;;440.93;261.27;;;;;;;-9.30;71.30;100453.94;4168592;28;20338;-57
2022/12/15 08:24:03;;;;;;;434.07;241.50;;;;;;;-9.25;71.42;100461.63;4163392;28;20298;-55
2022/12/15 08:26:07;;;;;;;439.00;258.53;;;;;;;-9.18;71.40;100468.31;4159219;28;20773;-59
2022/12/15 08:28:09;;;;;;;434.37;237.03;;;;;;;-9.17;71.24;100461.31;4162928;28;20703;-57
2022/12/15 08:30:13;;;;;;;435.63;245.53;;;;;;;-9.20;70.87;100462.28;4159587;28;20316;-58
2022/12/15 08:32:15;;;;;;;437.03;250.17;;;;;;;-9.20;71.09;100467.50;4168005;28;21211;-57
2022/12/15 08:34:17;;;;;;;435.17;237.53;;;;;;;-9.21;71.46;100465.81;4164425;28;20326;-59
2022/12/15 08:36:20;;;;;;;435.13;249.03;;;;;;;-9.21;71.69;100463.22;4166270;28;20231;-57
2022/12/15 08:38:22;;;;;;;438.47;257.77;;;;;;;-9.10;71.81;100468.88;4169244;28;20287;-57
2022/12/15 08:40:24;;;;;;;429.17;224.77;;;;;;;-9.07;71.76;100476.63;4168720;28;20729;-58
2022/12/15 08:42:27;;;;;;;432.17;234.23;;;;;;;-9.04;71.86;100474.78;4162870;28;20286;-57
2022/12/15 08:44:30;;;;;;;449.47;278.43;;;;;;;-8.99;72.00;100483.34;4167933;28;21129;-59
2022/12/15 08:46:34;;;;;;;448.80;270.60;;;;;;;-8.96;71.97;100472.75;4163485;28;20729;-60
2022/12/15 08:48:36;;;;;;;450.23;272.57;;;;;;;-8.93;72.11;100478.72;4164346;28;20295;-58
2022/12/15 08:50:42;;;;;;;451.67;276.43;;;;;;;-8.89;72.04;100476.81;4169097;28;21002;-58
2022/12/15 08:52:44;;;;;;;447.73;266.63;;;;;;;-8.82;72.34;100486.16;4162483;28;20765;-60
2022/12/15 08:54:46;;;;;;;448.97;274.73;;;;;;;-8.74;72.34;100488.47;4163781;28;20769;-58
2022/12/15 08:56:49;;;;;;;439.87;240.77;;;;;;;-8.71;72.27;100489.19;4148899;28;20310;-59
2022/12/15 08:58:55;;;;;;;448.03;277.83;;;;;;;-8.66;72.69;100486.38;4164084;28;21077;-57
2022/12/15 09:01:00;;;;;;;450.13;275.90;;;;;;;-8.59;72.72;100487.88;4168120;28;20278;-58
2022/12/15 09:03:04;;;;;;;451.53;282.70;;;;;;;-8.53;72.97;100484.13;4167197;28;20286;-60
2022/12/15 09:05:07;;;;;;;460.83;290.60;;;;;;;-8.49;72.90;100484.84;4163529;28;20286;-58
2022/12/15 09:07:10;;;;;;;447.80;262.07;;;;;;;-8.45;72.91;100489.06;4162945;28;20322;-58
2022/12/15 09:09:13;;;;;;;445.37;259.87;;;;;;;-8.40;72.70;100484.44;4162348;28;20270;-58
2022/12/15 09:11:15;;;;;;;448.40;270.43;;;;;;;-8.35;72.71;100488.59;4163500;28;20227;-58
2022/12/15 09:13:18;;;;;;;454.53;276.30;;;;;;;-8.32;72.59;100500.72;4162803;28;20286;-59
2022/12/15 09:15:20;;;;;;;447.70;259.97;;;;;;;-8.28;72.51;100496.19;4167399;28;20294;-60
2022/12/15 09:17:22;;;;;;;445.37;255.03;;;;;;;-8.23;72.61;100486.38;4165487;28;20211;-54
2022/12/15 09:19:26;;;;;;;455.40;289.37;;;;;;;-8.14;72.50;100499.09;4182009;28;20235;-58
2022/12/15 09:21:30;;;;;;;450.93;276.33;;;;;;;-8.10;72.48;100497.19;4169789;28;20867;-58
2022/12/15 09:23:33;;;;;;;451.23;264.57;;;;;;;-8.07;72.76;100497.06;4166384;28;20222;-57
2022/12/15 09:25:35;;;;;;;449.77;281.90;;;;;;;-8.01;72.76;100500.31;4166997;28;20238;-59
2022/12/15 09:27:38;;;;;;;449.77;277.13;;;;;;;-7.95;72.84;100499.19;4170426;28;20215;-58
2022/12/15 09:29:40;;;;;;;454.30;298.07;;;;;;;-7.87;72.67;100497.06;4167835;28;20255;-60
2022/12/15 09:31:45;;;;;;;451.50;280.53;;;;;;;-7.80;72.60;100489.81;4166811;28;20652;-54
2022/12/15 09:33:48;;;;;;;447.73;268.57;;;;;;;-7.71;72.95;100484.19;4173968;28;20227;-58
2022/12/15 09:35:53;;;;;;;456.50;303.80;;;;;;;-7.63;72.92;100484.69;4163596;28;20267;-61
2022/12/15 09:37:56;;;;;;;456.27;293.07;;;;;;;-7.55;72.78;100483.47;4164535;28;20220;-57
2022/12/15 09:39:59;;;;;;;450.87;269.73;;;;;;;-7.51;72.15;100488.53;4163702;28;20303;-59
2022/12/15 09:42:01;;;;;;;449.10;277.50;;;;;;;-7.48;72.24;100487.56;4172967;28;20306;-58
2022/12/15 09:44:06;;;;;;;451.73;285.00;;;;;;;-7.42;72.14;100487.28;4163500;28;20199;-58
2022/12/15 09:46:16;;;;;;;460.90;316.93;;;;;;;-7.38;72.37;100487.97;4164348;28;20810;-59
2022/12/15 09:48:21;;;;;;;457.03;301.47;;;;;;;-7.31;72.26;100487.66;4165950;28;20947;-59
2022/12/15 09:50:27;;;;;;;454.67;289.40;;;;;;;-7.25;72.00;100490.00;4165810;28;20318;-59
2022/12/15 09:52:33;;;;;;;447.27;268.87;;;;;;;-7.15;71.92;100492.19;4167037;28;20685;-57
2022/12/15 09:54:35;;;;;;;449.27;269.77;;;;;;;-7.09;71.82;100484.88;4167338;28;20659;-57
2022/12/15 09:56:42;;;;;;;452.13;276.77;;;;;;;-7.00;71.94;100493.28;4168320;28;20243;-57
2022/12/15 09:58:52;;;;;;;447.93;266.87;;;;;;;-6.93;71.96;100481.56;4177770;28;20227;-59
2022/12/15 10:00:58;;;;;;;449.83;269.10;;;;;;;-6.90;72.10;100484.03;4172360;28;20752;-56
2022/12/15 10:03:29;;;;;;;452.33;281.57;;;;;;;-6.80;71.74;100490.56;4180608;28;20681;-56
2022/12/15 10:05:38;;;;;;;456.60;300.97;;;;;;;-6.73;71.74;100502.47;4169295;28;20696;-57
2022/12/15 10:07:45;;;;;;;453.87;283.97;;;;;;;-6.69;71.79;100500.56;4169438;28;20211;-58
2022/12/15 10:09:47;;;;;;;452.30;287.80;;;;;;;-6.61;72.01;100510.72;4172783;28;20247;-58
2022/12/15 10:11:54;;;;;;;450.57;285.37;;;;;;;-6.56;72.42;100504.31;4168060;28;20258;-58
2022/12/15 10:14:01;;;;;;;447.87;279.17;;;;;;;-6.43;72.45;100509.81;4174047;28;20246;-57
2022/12/15 10:16:08;;;;;;;448.97;281.93;;;;;;;-6.37;72.36;100509.53;4166905;28;20964;-58
2022/12/15 10:18:19;;;;;;;450.43;287.17;;;;;;;-6.31;71.79;100508.38;4167644;28;20223;-56
2022/12/15 10:20:24;;;;;;;444.00;248.97;;;;;;;-6.22;71.82;100509.69;4166832;28;20672;-55
2022/12/15 10:22:29;;;;;;;445.00;262.53;;;;;;;-6.13;71.59;100511.03;4170441;28;20291;-54
2022/12/15 10:24:33;;;;;;;450.07;291.50;;;;;;;-6.08;71.38;100502.00;4165269;28;20227;-56
2022/12/15 10:26:36;;;;;;;446.97;280.40;;;;;;;-6.06;71.03;100500.13;4170723;28;20753;-58
2022/12/15 10:28:52;;;;;;;447.43;269.60;;;;;;;-6.00;70.70;100499.84;4165680;28;20222;-55
2022/12/15 10:30:58;;;;;;;442.57;271.60;;;;;;;-5.92;70.61;100501.22;4164290;28;20744;-57
2022/12/15 10:33:02;;;;;;;443.10;277.97;;;;;;;-5.87;70.48;100501.81;4168164;28;20234;-58
2022/12/15 10:35:08;;;;;;;453.37;287.03;;;;;;;-5.82;70.43;100489.28;4165062;28;20231;-56
2022/12/15 10:37:13;;;;;;;448.43;281.87;;;;;;;-5.70;70.10;100500.97;4169517;28;20214;-55
2022/12/15 10:39:16;;;;;;;452.43;303.17;;;;;;;-5.68;70.10;100488.56;4172238;28;20239;-58
2022/12/15 10:41:21;;;;;;;445.23;260.37;;;;;;;-5.65;69.91;100494.50;4167740;28;20239;-59
2022/12/15 10:43:26;;;;;;;444.27;268.03;;;;;;;-5.62;69.79;100496.13;4170273;28;20773;-56
2022/12/15 10:45:32;;;;;;;441.67;271.93;;;;;;;-5.59;69.76;100501.25;4166148;28;20257;-58
2022/12/15 10:47:35;;;;;;;442.00;280.90;;;;;;;-5.57;70.10;100501.16;4169135;28;20496;-57
2022/12/15 10:49:37;;;;;;;434.07;245.30;;;;;;;-5.55;69.68;100507.19;4167906;28;20283;-55
2022/12/15 10:51:44;;;;;;;429.07;240.67;;;;;;;-5.55;70.02;100504.56;4175616;28;20303;-57
2022/12/15 10:53:49;;;;;;;434.70;254.23;;;;;;;-5.55;70.03;100502.78;4166769;28;20283;-58
2022/12/15 10:56:00;;;;;;;430.07;251.33;;;;;;;-5.53;70.00;100507.94;4165756;28;20672;-57
2022/12/15 10:58:05;;;;;;;430.43;248.63;;;;;;;-5.53;70.27;100506.19;4167223;28;20278;-57
2022/12/15 11:00:27;;;;;;;427.33;236.80;;;;;;;-5.55;70.36;100504.56;4164982;28;20298;-55
2022/12/15 11:02:35;;;;;;;418.07;196.40;;;;;;;-5.46;70.04;100519.88;4165541;28;20760;-57
2022/12/15 11:04:37;;;;;;;414.33;183.03;;;;;;;-5.37;70.21;100526.44;4162982;28;20644;-55
2022/12/15 11:06:42;;;;;;;419.03;208.90;;;;;;;-5.32;70.07;100522.63;4139283;28;20220;-59
2022/12/15 11:08:46;;;;;;;411.90;183.00;;;;;;;-5.29;69.85;100521.63;4165783;28;21132;-56
2022/12/15 11:13:15;;;;;;;416.23;197.73;;;;;;;-5.15;69.11;100518.28;4167746;28;21073;-55
2022/12/15 11:15:41;;;;;;;423.33;225.43;;;;;;;-5.14;68.49;100510.28;4176532;28;20737;-56
2022/12/15 11:17:43;;;;;;;407.47;174.63;;;;;;;-5.11;67.87;100519.78;4165817;28;21043;-58
2022/12/15 11:19:51;;;;;;;404.07;161.17;;;;;;;-5.04;67.90;100523.81;4179794;28;20676;-60
2022/12/15 11:21:58;;;;;;;409.10;178.83;;;;;;;-4.96;68.42;100518.13;4171694;28;20724;-56
2022/12/15 11:24:07;;;;;;;412.50;191.20;;;;;;;-4.89;68.42;100527.38;4174661;28;20820;-58
2022/12/15 11:26:26;;;;;;;410.13;186.20;;;;;;;-4.86;68.52;100526.38;4169952;28;21144;-58
2022/12/15 11:28:34;;;;;;;409.27;184.47;;;;;;;-4.82;68.73;100520.84;4174946;28;20704;-58
2022/12/15 11:30:42;;;;;;;413.83;200.23;;;;;;;-4.77;68.30;100520.59;4158973;28;20748;-58
2022/12/15 11:32:47;;;;;;;412.10;193.37;;;;;;;-4.72;68.73;100514.16;4170779;28;21226;-57
2022/12/15 11:34:50;;;;;;;406.30;174.20;;;;;;;-4.63;68.24;100527.75;4165386;28;20729;-58
2022/12/15 11:37:14;;;;;;;407.33;193.93;;;;;;;-4.57;68.57;100517.72;4163616;28;21286;-58